Farmer City, Illinois
Current Conditions -  °F | °C
As of 11:56 PM on Friday 28 Nov 2014 (Local Time) from KBMI Reporting Station
Clear Clear  
Wind Chill: 24°   Ceiling: Unl
Heat Index: 34°   Visibility: 10mi
Dew Point: 31°   Wind: 15mph
Humidity: 89%   Direction: 180°S
Pressure: 29.87"   Gusts: NA
Location:  40.24°N, 88.64°W
Report Text: KBMI 290556Z AUTO 18013KT 10SM CLR 01/M01 A2987 RMK AO2 58011 T00111005 10016 20011 400381100 SLP127
Loading
Personal Weather Stations






























Interactive Weather Map New forecast layout! Learn more

10-Day Weather Forecast

Advertisements
Track Severe Weather on mobile